Rosedale, Mississippi
Current Conditions -  °F | °C
As of 4:15 AM on Tuesday 27 Jan 2015 (Local Time) from KRNV Reporting Station
Clear Clear  
Wind Chill: 44°   Ceiling: Unl
Heat Index: 44°   Visibility: 10mi
Dew Point: 38°   Wind: 3mph
Humidity: 80%   Direction: 280°W
Pressure: 30.01"   Gusts: NA
Location:  33.85°N, 91.03°W
Report Text: KRNV 271015Z AUTO 28003KT 10SM CLR 07/03 A3001 RMK AO2 T00660034
Loading
Personal Weather Stations






























Interactive Weather Map New forecast layout! Learn more

10-Day Weather Forecast

Advertisements
Track Severe Weather on mobile